createdAt,value
2022-09-11T00:01:49.311Z,100682.00
2022-09-11T00:04:18.563Z,100680.40
2022-09-11T00:06:47.357Z,100679.80
2022-09-11T00:09:15.945Z,100687.00
2022-09-11T00:11:44.729Z,100684.40
2022-09-11T00:14:14.660Z,100684.60
2022-09-11T00:16:47.307Z,100686.80
2022-09-11T00:19:19.492Z,100692.80
2022-09-11T00:21:50.780Z,100693.20
2022-09-11T00:24:20.245Z,100695.40
2022-09-11T00:26:48.729Z,100698.00
2022-09-11T00:29:18.131Z,100696.00
2022-09-11T00:31:49.478Z,100696.80
2022-09-11T00:34:18.882Z,100693.40
2022-09-11T00:36:48.696Z,100693.60
2022-09-11T00:39:18.304Z,100689.00
2022-09-11T00:41:47.401Z,100697.60
2022-09-11T00:44:18.954Z,100690.80
2022-09-11T00:46:53.401Z,100694.00
2022-09-11T00:49:43.669Z,100699.80
2022-09-11T00:52:17.172Z,100704.80
2022-09-11T00:55:15.244Z,100702.60
2022-09-11T00:57:54.273Z,100699.60
2022-09-11T01:00:23.781Z,100701.20
2022-09-11T01:02:54.720Z,100699.60
2022-09-11T01:05:26.420Z,100704.20
2022-09-11T01:07:56.697Z,100702.00
2022-09-11T01:10:47.202Z,100700.00
2022-09-11T01:13:33.499Z,100699.40
2022-09-11T01:16:22.285Z,100706.80
2022-09-11T01:19:15.213Z,100708.20
2022-09-11T01:22:20.559Z,100708.40
2022-09-11T01:24:57.438Z,100704.00
2022-09-11T01:27:47.321Z,100698.60
2022-09-11T01:30:21.628Z,100696.60
2022-09-11T01:34:06.217Z,100698.00
2022-09-11T01:36:47.490Z,100701.20
2022-09-11T01:39:20.465Z,100709.40
2022-09-11T01:42:01.977Z,100707.40
2022-09-11T01:44:55.432Z,100709.20
2022-09-11T01:47:26.416Z,100706.60
2022-09-11T01:50:04.786Z,100704.80
2022-09-11T01:52:48.219Z,100701.20
2022-09-11T01:55:46.193Z,100695.80
2022-09-11T01:58:30.183Z,100699.40
2022-09-11T02:01:11.882Z,100692.40
2022-09-11T02:03:48.591Z,100691.20
2022-09-11T02:06:25.074Z,100693.40
2022-09-11T02:09:00.002Z,100683.00
2022-09-11T02:11:39.253Z,100684.20
2022-09-11T02:14:18.481Z,100680.40
2022-09-11T02:17:09.178Z,100684.20
2022-09-11T02:19:40.016Z,100679.60
2022-09-11T02:22:09.533Z,100682.40
2022-09-11T02:24:39.540Z,100683.40
2022-09-11T02:27:23.285Z,100686.00
2022-09-11T02:29:54.171Z,100687.00
2022-09-11T02:32:24.067Z,100685.00
2022-09-11T02:34:55.726Z,100691.60
2022-09-11T02:37:39.432Z,100681.00
2022-09-11T02:40:20.627Z,100687.20
2022-09-11T02:43:33.716Z,100684.60
2022-09-11T02:46:08.571Z,100683.40
2022-09-11T02:49:23.353Z,100689.00
2022-09-11T02:52:28.278Z,100688.80
2022-09-11T02:55:02.392Z,100693.40
2022-09-11T02:58:18.079Z,100689.80
2022-09-11T03:00:48.363Z,100699.80
2022-09-11T03:03:17.604Z,100696.60
2022-09-11T03:05:46.699Z,100701.80
2022-09-11T03:08:20.710Z,100702.80
2022-09-11T03:10:50.317Z,100700.20
2022-09-11T03:13:19.109Z,100702.40
2022-09-11T03:15:48.511Z,100700.40
2022-09-11T03:18:17.710Z,100705.60
2022-09-11T03:20:47.626Z,100699.60
2022-09-11T03:23:16.280Z,100700.80
2022-09-11T03:25:45.202Z,100700.20
2022-09-11T03:28:14.227Z,100701.60
2022-09-11T03:30:43.088Z,100706.20
2022-09-11T03:33:12.390Z,100710.60
2022-09-11T03:35:40.871Z,100712.00
2022-09-11T03:38:10.011Z,100717.60
2022-09-11T03:40:42.240Z,100720.00
2022-09-11T03:43:12.691Z,100721.40
2022-09-11T03:45:41.168Z,100721.20
2022-09-11T03:48:10.286Z,100721.60
2022-09-11T03:50:38.729Z,100721.80
2022-09-11T03:53:07.516Z,100728.20
2022-09-11T03:55:36.101Z,100725.00
2022-09-11T03:58:04.997Z,100719.80
2022-09-11T04:00:34.191Z,100716.60
2022-09-11T04:03:02.758Z,100717.80
2022-09-11T04:05:44.365Z,100719.60
2022-09-11T04:08:13.697Z,100715.20
2022-09-11T04:10:44.400Z,100721.80
2022-09-11T04:13:13.328Z,100717.20
2022-09-11T04:15:42.860Z,100714.20
2022-09-11T04:18:11.524Z,100716.20
2022-09-11T04:20:40.270Z,100716.80
2022-09-11T04:23:09.507Z,100718.80
2022-09-11T04:25:39.286Z,100719.80
2022-09-11T04:28:08.485Z,100722.80
2022-09-11T04:30:39.897Z,100722.00
2022-09-11T04:33:09.065Z,100725.60
2022-09-11T04:35:39.921Z,100726.80
2022-09-11T04:38:08.762Z,100731.40
2022-09-11T04:40:38.006Z,100731.40
2022-09-11T04:43:06.853Z,100737.00
2022-09-11T04:45:36.893Z,100742.60
2022-09-11T04:48:06.480Z,100749.20
2022-09-11T04:50:35.267Z,100750.20
2022-09-11T04:53:17.165Z,100753.20
2022-09-11T04:55:46.363Z,100753.80
2022-09-11T04:58:15.357Z,100752.00
2022-09-11T05:00:44.072Z,100748.80
2022-09-11T05:03:12.628Z,100749.40
2022-09-11T05:05:41.728Z,100754.40
2022-09-11T05:08:11.845Z,100755.80
2022-09-11T05:10:42.580Z,100763.60
2022-09-11T05:13:12.394Z,100764.60
2022-09-11T05:15:40.951Z,100769.40
2022-09-11T05:18:11.874Z,100772.80
2022-09-11T05:20:41.014Z,100779.40
2022-09-11T05:23:11.847Z,100785.40
2022-09-11T05:25:40.499Z,100790.60
2022-09-11T05:28:09.022Z,100789.20
2022-09-11T05:30:37.719Z,100796.80
2022-09-11T05:33:06.939Z,100793.20
2022-09-11T05:35:36.164Z,100797.20
2022-09-11T05:38:04.790Z,100798.60
2022-09-11T05:40:34.194Z,100797.00
2022-09-11T05:43:03.148Z,100799.40
2022-09-11T05:45:32.986Z,100802.40
2022-09-11T05:48:03.670Z,100807.20
2022-09-11T05:50:34.678Z,100803.20
2022-09-11T05:53:05.867Z,100807.60
2022-09-11T05:55:35.768Z,100807.60
2022-09-11T05:58:05.347Z,100809.00
2022-09-11T06:00:34.339Z,100814.00
2022-09-11T06:03:03.026Z,100820.80
2022-09-11T06:05:31.713Z,100823.20
2022-09-11T06:08:01.835Z,100828.40
2022-09-11T06:10:30.622Z,100829.60
2022-09-11T06:12:59.104Z,100829.80
2022-09-11T06:15:45.637Z,100834.80
2022-09-11T06:18:16.753Z,100828.80
2022-09-11T06:20:59.555Z,100828.60
2022-09-11T06:23:29.181Z,100837.00
2022-09-11T06:26:10.974Z,100837.60
2022-09-11T06:28:41.141Z,100845.40
2022-09-11T06:31:16.587Z,100849.60
2022-09-11T06:33:47.074Z,100851.00
2022-09-11T06:36:19.746Z,100855.20
2022-09-11T06:38:55.229Z,100858.60
2022-09-11T06:41:26.713Z,100859.60
2022-09-11T06:43:59.645Z,100860.00
2022-09-11T06:46:30.137Z,100854.20
2022-09-11T06:49:00.053Z,100852.40
2022-09-11T06:51:30.178Z,100851.80
2022-09-11T06:54:02.424Z,100857.80
2022-09-11T06:56:36.187Z,100862.00
2022-09-11T06:59:06.815Z,100861.00
2022-09-11T07:01:36.604Z,100857.20
2022-09-11T07:04:06.189Z,100867.40
2022-09-11T07:06:35.941Z,100865.80
2022-09-11T07:09:04.832Z,100866.20
2022-09-11T07:11:45.193Z,100867.20
2022-09-11T07:14:14.293Z,100866.40
2022-09-11T07:16:44.345Z,100867.00
2022-09-11T07:19:14.325Z,100867.80
2022-09-11T07:21:42.910Z,100862.40
2022-09-11T07:24:12.600Z,100869.60
2022-09-11T07:26:43.460Z,100867.20
2022-09-11T07:29:18.290Z,100865.40
2022-09-11T07:31:48.514Z,100867.60
2022-09-11T07:34:18.327Z,100874.20
2022-09-11T07:36:48.246Z,100875.20
2022-09-11T07:39:16.722Z,100876.20
2022-09-11T07:41:51.144Z,100880.20
2022-09-11T07:44:24.850Z,100881.80
2022-09-11T07:46:53.637Z,100876.40
2022-09-11T07:49:22.222Z,100878.00
2022-09-11T07:51:52.241Z,100879.00
2022-09-11T07:54:24.213Z,100879.80
2022-09-11T07:56:53.301Z,100882.20
2022-09-11T07:59:23.113Z,100884.00
2022-09-11T08:01:54.711Z,100882.40
2022-09-11T08:04:23.562Z,100884.40
2022-09-11T08:06:52.572Z,100884.20
2022-09-11T08:09:29.025Z,100888.20
2022-09-11T08:12:01.193Z,100896.20
2022-09-11T08:14:30.083Z,100895.80
2022-09-11T08:17:02.661Z,100900.00
2022-09-11T08:19:33.088Z,100898.00
2022-09-11T08:22:03.316Z,100908.00
2022-09-11T08:24:36.202Z,100908.00
2022-09-11T08:27:07.244Z,100911.80
2022-09-11T08:29:38.700Z,100911.80
2022-09-11T08:32:07.585Z,100908.80
2022-09-11T08:34:38.933Z,100917.00
2022-09-11T08:37:07.723Z,100912.20
2022-09-11T08:39:36.859Z,100918.00
2022-09-11T08:42:16.722Z,100911.60
2022-09-11T08:44:54.365Z,100907.00
2022-09-11T08:47:40.673Z,100893.20
2022-09-11T08:50:42.528Z,100884.40
2022-09-11T08:53:19.715Z,100887.40
2022-09-11T08:56:02.138Z,100885.40
2022-09-11T08:58:49.344Z,100887.00
2022-09-11T09:01:37.788Z,100887.40
2022-09-11T09:05:00.758Z,100886.20
2022-09-11T09:07:47.669Z,100892.00
2022-09-11T09:10:43.023Z,100894.40
2022-09-11T09:13:23.749Z,100902.40
2022-09-11T09:16:03.015Z,100898.40
2022-09-11T09:19:03.619Z,100902.60
2022-09-11T09:22:18.079Z,100902.60
2022-09-11T09:24:53.831Z,100901.80
2022-09-11T09:27:32.080Z,100898.20
2022-09-11T09:30:13.734Z,100898.00
2022-09-11T09:32:59.115Z,100896.80
2022-09-11T09:35:43.399Z,100889.80
2022-09-11T09:38:23.843Z,100890.60
2022-09-11T09:41:02.174Z,100892.40
2022-09-11T09:44:24.515Z,100896.00
2022-09-11T09:46:59.638Z,100896.20
2022-09-11T09:49:34.534Z,100903.40
2022-09-11T09:52:24.653Z,100915.80
2022-09-11T09:55:13.914Z,100914.60
2022-09-11T09:57:43.624Z,100919.20
2022-09-11T10:00:17.745Z,100922.40
2022-09-11T10:02:49.499Z,100920.00
2022-09-11T10:05:30.843Z,100914.60
2022-09-11T10:08:38.077Z,100911.20
2022-09-11T10:11:11.403Z,100912.60
2022-09-11T10:13:54.237Z,100919.00
2022-09-11T10:16:28.423Z,100916.20
2022-09-11T10:18:56.987Z,100918.00
2022-09-11T10:21:35.607Z,100915.60
2022-09-11T10:24:10.232Z,100919.00
2022-09-11T10:26:46.412Z,100920.40
2022-09-11T10:29:25.130Z,100925.20
2022-09-11T10:31:58.125Z,100926.00
2022-09-11T10:34:34.891Z,100926.40
2022-09-11T10:37:16.368Z,100933.40
2022-09-11T10:39:47.490Z,100934.80
2022-09-11T10:42:26.143Z,100933.20
2022-09-11T10:45:06.394Z,100930.80
2022-09-11T10:47:34.974Z,100932.20
2022-09-11T10:50:27.208Z,100926.80
2022-09-11T10:52:58.872Z,100928.80
2022-09-11T10:55:36.738Z,100923.80
2022-09-11T10:58:17.463Z,100921.00
2022-09-11T11:00:46.025Z,100921.60
2022-09-11T11:03:22.323Z,100920.60
2022-09-11T11:06:22.312Z,100929.60
2022-09-11T11:09:06.470Z,100931.00
2022-09-11T11:11:56.447Z,100936.00
2022-09-11T11:14:55.445Z,100936.20
2022-09-11T11:17:39.083Z,100936.80
2022-09-11T11:20:54.991Z,100930.40
2022-09-11T11:23:33.595Z,100931.00
2022-09-11T11:26:23.082Z,100932.20
2022-09-11T11:29:00.772Z,100930.20
2022-09-11T11:32:47.904Z,100936.40
2022-09-11T11:35:34.193Z,100935.20
2022-09-11T11:38:20.493Z,100936.20
2022-09-11T11:40:57.679Z,100936.80
2022-09-11T11:43:32.557Z,100940.40
2022-09-11T11:46:04.889Z,100941.60
2022-09-11T11:48:56.304Z,100947.40
2022-09-11T11:51:33.083Z,100948.60
2022-09-11T11:54:09.856Z,100949.60
2022-09-11T11:57:08.239Z,100948.20
2022-09-11T11:59:45.324Z,100946.60
2022-09-11T12:02:53.456Z,100948.40
2022-09-11T12:05:33.212Z,100949.40
2022-09-11T12:08:02.486Z,100950.20
2022-09-11T12:10:38.415Z,100951.00
2022-09-11T12:13:20.267Z,100957.20
2022-09-11T12:16:34.043Z,100963.00
2022-09-11T12:19:22.097Z,100966.60
2022-09-11T12:22:06.909Z,100973.20
2022-09-11T12:24:59.129Z,100972.40
2022-09-11T12:27:34.628Z,100972.80
2022-09-11T12:30:23.460Z,100972.60
2022-09-11T12:32:55.496Z,100971.60
2022-09-11T12:35:52.376Z,100965.80
2022-09-11T12:38:40.745Z,100966.00
2022-09-11T12:41:14.379Z,100960.80
2022-09-11T12:43:42.757Z,100956.40
2022-09-11T12:46:21.702Z,100952.20
2022-09-11T12:49:20.395Z,100953.60
2022-09-11T12:51:55.282Z,100956.00
2022-09-11T12:54:41.015Z,100949.20
2022-09-11T12:57:35.608Z,100949.60
2022-09-11T13:00:20.573Z,100950.40
2022-09-11T13:02:57.958Z,100957.40
2022-09-11T13:05:40.065Z,100956.00
2022-09-11T13:08:22.601Z,100963.20
2022-09-11T13:10:51.570Z,100968.40
2022-09-11T13:13:37.767Z,100968.40
2022-09-11T13:16:19.443Z,100972.00
2022-09-11T13:18:48.658Z,100972.80
2022-09-11T13:21:21.121Z,100974.20
2022-09-11T13:23:53.205Z,100966.00
2022-09-11T13:26:32.438Z,100971.60
2022-09-11T13:29:02.149Z,100957.40
2022-09-11T13:31:38.757Z,100958.00
2022-09-11T13:34:16.095Z,100956.00
2022-09-11T13:36:47.395Z,100958.40
2022-09-11T13:39:17.620Z,100954.40
2022-09-11T13:41:51.039Z,100952.00
2022-09-11T13:44:49.540Z,100957.20
2022-09-11T13:47:31.618Z,100956.60
2022-09-11T13:50:06.527Z,100957.40
2022-09-11T13:52:36.645Z,100960.60
2022-09-11T13:55:27.870Z,100957.40
2022-09-11T13:58:02.417Z,100956.40
2022-09-11T14:00:37.805Z,100950.80
2022-09-11T14:03:20.434Z,100957.80
2022-09-11T14:05:56.931Z,100960.20
2022-09-11T14:08:44.960Z,100961.40
2022-09-11T14:11:28.458Z,100959.20
2022-09-11T14:14:26.120Z,100961.00
2022-09-11T14:17:01.710Z,100966.00
2022-09-11T14:19:35.286Z,100965.20
2022-09-11T14:22:16.162Z,100964.40
2022-09-11T14:25:05.314Z,100964.00
2022-09-11T14:27:38.258Z,100969.80
2022-09-11T14:30:34.695Z,100966.60
2022-09-11T14:33:24.826Z,100969.80
2022-09-11T14:36:07.681Z,100966.40
2022-09-11T14:38:38.586Z,100961.80
2022-09-11T14:41:07.885Z,100958.80
2022-09-11T14:43:38.928Z,100960.20
2022-09-11T14:46:07.645Z,100958.80
2022-09-11T14:48:36.510Z,100956.20
2022-09-11T14:51:11.245Z,100952.40
2022-09-11T14:53:43.734Z,100950.40
2022-09-11T14:56:12.500Z,100954.00
2022-09-11T14:58:41.191Z,100959.60
2022-09-11T15:01:14.127Z,100962.20
2022-09-11T15:03:42.784Z,100963.20
2022-09-11T15:06:20.692Z,100960.40
2022-09-11T15:08:50.286Z,100956.00
2022-09-11T15:11:18.752Z,100957.20
2022-09-11T15:14:13.533Z,100954.40
2022-09-11T15:16:36.708Z,100955.60
2022-09-11T15:19:05.792Z,100958.20
2022-09-11T15:21:37.562Z,100962.20
2022-09-11T15:24:06.807Z,100969.40
2022-09-11T15:26:37.088Z,100970.60
2022-09-11T15:29:10.178Z,100979.20
2022-09-11T15:31:39.851Z,100982.80
2022-09-11T15:34:10.025Z,100993.00
2022-09-11T15:36:38.869Z,100993.60
2022-09-11T15:39:13.477Z,100992.80
2022-09-11T15:41:45.556Z,101001.20
2022-09-11T15:44:22.409Z,101021.20
2022-09-11T15:46:54.238Z,101027.20
2022-09-11T15:49:24.533Z,101027.40
2022-09-11T15:51:54.574Z,101028.00
2022-09-11T15:54:26.301Z,101030.80
2022-09-11T15:56:55.633Z,101035.80
2022-09-11T15:59:24.117Z,101039.40
2022-09-11T16:01:53.075Z,101042.20
2022-09-11T16:04:23.230Z,101039.80
2022-09-11T16:06:53.967Z,101040.40
2022-09-11T16:09:28.891Z,101041.40
2022-09-11T16:11:59.570Z,101040.40
2022-09-11T16:14:33.360Z,101039.00
2022-09-11T16:17:03.717Z,101033.80
2022-09-11T16:19:33.172Z,101034.00
2022-09-11T16:22:04.848Z,101030.20
2022-09-11T16:24:37.907Z,101027.00
2022-09-11T16:27:09.942Z,101024.40
2022-09-11T16:32:29.477Z,101029.80
2022-09-11T16:34:59.880Z,101031.40
2022-09-11T16:37:29.203Z,101031.40
2022-09-11T16:39:58.347Z,101025.20
2022-09-11T16:42:26.884Z,101028.40
2022-09-11T16:44:55.481Z,101020.20
2022-09-11T16:47:24.464Z,101025.00
2022-09-11T16:50:09.145Z,101021.20
2022-09-11T16:52:39.596Z,101021.40
2022-09-11T16:55:11.219Z,101022.20
2022-09-11T16:57:39.897Z,101019.60
2022-09-11T17:00:11.012Z,101016.00
2022-09-11T17:02:41.569Z,101015.60
2022-09-11T17:05:10.255Z,101014.40
2022-09-11T17:07:39.386Z,101016.80
2022-09-11T17:10:09.319Z,101021.60
2022-09-11T17:12:37.851Z,101019.80
2022-09-11T17:15:07.955Z,101019.20
2022-09-11T17:17:38.245Z,101019.00
2022-09-11T17:20:10.108Z,101023.20
2022-09-11T17:22:40.308Z,101023.80
2022-09-11T17:25:09.272Z,101021.60
2022-09-11T17:27:38.065Z,101027.00
2022-09-11T17:30:08.168Z,101032.00
2022-09-11T17:32:37.385Z,101030.20
2022-09-11T17:35:06.491Z,101035.60
2022-09-11T17:37:35.881Z,101036.00
2022-09-11T17:40:07.284Z,101035.60
2022-09-11T17:42:36.143Z,101043.40
2022-09-11T17:45:06.087Z,101043.00
2022-09-11T17:47:35.137Z,101042.40
2022-09-11T17:50:04.404Z,101049.40
2022-09-11T17:52:37.115Z,101054.40
2022-09-11T17:55:06.421Z,101062.20
2022-09-11T17:57:35.312Z,101066.20
2022-09-11T18:00:05.881Z,101065.40
2022-09-11T18:02:40.877Z,101064.20
2022-09-11T18:05:09.688Z,101066.60
2022-09-11T18:07:39.376Z,101064.40
2022-09-11T18:10:09.090Z,101066.80
2022-09-11T18:12:37.670Z,101068.60
2022-09-11T18:15:07.723Z,101071.80
2022-09-11T18:17:36.170Z,101071.40
2022-09-11T18:20:06.554Z,101067.60
2022-09-11T18:22:39.731Z,101071.20
2022-09-11T18:25:09.892Z,101068.00
2022-09-11T18:27:39.820Z,101070.20
2022-09-11T18:30:09.844Z,101071.60
2022-09-11T18:32:39.917Z,101072.20
2022-09-11T18:35:09.827Z,101075.60
2022-09-11T18:37:38.981Z,101074.60
2022-09-11T18:40:08.578Z,101072.60
2022-09-11T18:42:41.166Z,101078.00
2022-09-11T18:45:11.228Z,101079.80
2022-09-11T18:47:40.727Z,101076.80
2022-09-11T18:50:10.194Z,101074.20
2022-09-11T18:52:38.675Z,101076.40
2022-09-11T18:55:08.078Z,101074.60
2022-09-11T18:57:41.203Z,101077.00
2022-09-11T19:00:17.319Z,101076.00
2022-09-11T19:02:47.987Z,101073.40
2022-09-11T19:05:17.501Z,101078.20
2022-09-11T19:07:48.106Z,101084.00
2022-09-11T19:10:17.918Z,101087.40
2022-09-11T19:12:49.283Z,101085.80
2022-09-11T19:15:17.967Z,101088.80
2022-09-11T19:17:47.966Z,101093.80
2022-09-11T19:20:20.142Z,101094.80
2022-09-11T19:22:48.928Z,101089.80
2022-09-11T19:25:18.025Z,101093.80
2022-09-11T19:27:46.814Z,101086.20
2022-09-11T19:30:16.537Z,101088.40
2022-09-11T19:32:45.107Z,101087.40
2022-09-11T19:35:13.696Z,101087.40
2022-09-11T19:37:42.379Z,101083.80
2022-09-11T19:40:11.389Z,101089.60
2022-09-11T19:42:40.373Z,101093.20
2022-09-11T19:45:09.565Z,101097.80
2022-09-11T19:47:38.171Z,101096.20
2022-09-11T19:50:08.819Z,101100.00
2022-09-11T19:52:37.264Z,101104.40
2022-09-11T19:55:06.566Z,101105.20
2022-09-11T19:57:35.150Z,101111.60
2022-09-11T20:00:05.202Z,101111.40
2022-09-11T20:02:34.164Z,101108.40
2022-09-11T20:05:02.644Z,101106.80
2022-09-11T20:07:31.664Z,101116.60
2022-09-11T20:10:00.532Z,101114.20
2022-09-11T20:12:37.218Z,101111.60
2022-09-11T20:15:07.737Z,101114.40
2022-09-11T20:17:36.318Z,101120.20
2022-09-11T20:20:07.096Z,101116.20
2022-09-11T20:22:35.643Z,101114.80
2022-09-11T20:25:04.940Z,101122.60
2022-09-11T20:27:34.649Z,101120.00
2022-09-11T20:30:03.336Z,101124.00
2022-09-11T20:32:32.149Z,101122.80
2022-09-11T20:35:01.428Z,101132.40
2022-09-11T20:37:30.114Z,101128.80
2022-09-11T20:40:00.428Z,101126.00
2022-09-11T20:42:29.333Z,101124.80
2022-09-11T20:44:58.018Z,101122.60
2022-09-11T20:47:26.807Z,101123.80
2022-09-11T20:49:55.390Z,101119.80
2022-09-11T20:52:23.975Z,101124.00
2022-09-11T20:54:54.609Z,101121.20
2022-09-11T20:57:23.089Z,101122.20
2022-09-11T20:59:51.572Z,101125.40
2022-09-11T21:02:20.293Z,101125.00
2022-09-11T21:04:49.768Z,101122.20
2022-09-11T21:07:18.366Z,101124.60
2022-09-11T21:09:48.060Z,101121.40
2022-09-11T21:12:16.757Z,101120.00
2022-09-11T21:14:46.047Z,101122.00
2022-09-11T21:17:14.837Z,101119.60
2022-09-11T21:19:43.728Z,101117.40
2022-09-11T21:22:12.513Z,101123.80
2022-09-11T21:24:43.356Z,101126.80
2022-09-11T21:27:11.939Z,101125.80
2022-09-11T21:29:40.645Z,101121.20
2022-09-11T21:32:10.585Z,101124.60
2022-09-11T21:34:39.126Z,101127.00
2022-09-11T21:37:07.710Z,101132.60
2022-09-11T21:39:37.597Z,101138.20
2022-09-11T21:42:11.630Z,101134.40
2022-09-11T21:44:40.529Z,101138.00
2022-09-11T21:47:09.011Z,101137.20
2022-09-11T21:49:37.700Z,101137.40
2022-09-11T21:52:06.286Z,101136.40
2022-09-11T21:54:34.919Z,101133.00
2022-09-11T21:57:03.555Z,101136.60
2022-09-11T21:59:32.242Z,101141.00
2022-09-11T22:02:01.693Z,101140.40
2022-09-11T22:04:31.361Z,101142.60
2022-09-11T22:07:00.656Z,101138.40
2022-09-11T22:09:30.265Z,101137.20
2022-09-11T22:12:00.052Z,101141.00
2022-09-11T22:14:29.075Z,101142.80
2022-09-11T22:16:58.229Z,101139.60
2022-09-11T22:19:26.958Z,101146.60
2022-09-11T22:21:56.568Z,101145.80
2022-09-11T22:24:25.051Z,101146.80
2022-09-11T22:26:53.641Z,101144.60
2022-09-11T22:29:22.217Z,101147.40
2022-09-11T22:31:50.730Z,101145.20
2022-09-11T22:34:19.283Z,101149.40
2022-09-11T22:36:48.380Z,101149.80
2022-09-11T22:39:16.864Z,101146.40
2022-09-11T22:41:46.267Z,101144.00
2022-09-11T22:44:14.851Z,101145.40
2022-09-11T22:46:46.977Z,101146.40
2022-09-11T22:49:17.447Z,101147.00
2022-09-11T22:51:45.930Z,101149.00
2022-09-11T22:54:15.028Z,101154.00
2022-09-11T22:56:44.325Z,101155.00
2022-09-11T22:59:13.160Z,101154.00
2022-09-11T23:01:41.737Z,101152.20
2022-09-11T23:04:10.487Z,101150.40
2022-09-11T23:06:57.606Z,101151.20
2022-09-11T23:09:26.089Z,101152.00
2022-09-11T23:11:56.005Z,101147.40
2022-09-11T23:14:24.605Z,101144.00
2022-09-11T23:16:53.685Z,101145.80
2022-09-11T23:19:23.132Z,101143.60
2022-09-11T23:21:52.086Z,101145.20
2022-09-11T23:24:21.281Z,101145.40
2022-09-11T23:26:50.173Z,101142.80
2022-09-11T23:29:18.758Z,101141.40
2022-09-11T23:31:48.099Z,101148.60
2022-09-11T23:34:17.715Z,101141.40
2022-09-11T23:36:46.251Z,101141.80
2022-09-11T23:39:15.348Z,101143.60
2022-09-11T23:41:44.138Z,101138.40
2022-09-11T23:44:12.824Z,101136.40
2022-09-11T23:46:41.515Z,101135.20
2022-09-11T23:49:13.474Z,101135.00
2022-09-11T23:51:42.879Z,101135.60
2022-09-11T23:54:11.365Z,101137.20
2022-09-11T23:56:39.843Z,101136.80
2022-09-11T23:59:08.427Z,101131.20
